Time;durP1;ratioP1;P1;durP2;ratioP2;P2;SDS_P1;SDS_P2;PMS_P1;PMS_P2;Temp;Humidity;BMP_temperature;BMP_pressure;BME280_temperature;BME280_humidity;BME280_pressure;Samples;Min_cycle;Max_cycle;Signal;HPM_P1;HPM_P2
2023/10/09 00:03:03;;;;;;;1.33;1.23;;;20.40;68.80;;;;;;5100842;28;20040;-76
2023/10/09 00:08:21;;;;;;;1.30;1.20;;;20.30;68.70;;;;;;5086088;28;20350;-76
2023/10/09 00:10:53;;;;;;;1.30;1.20;;;20.40;68.80;;;;;;5097661;28;20039;-76
2023/10/09 00:13:32;;;;;;;1.35;1.25;;;20.30;68.70;;;;;;5088404;28;20036;-76
2023/10/09 00:16:08;;;;;;;1.35;1.08;;;20.30;68.70;;;;;;5078473;28;20093;-76
2023/10/09 00:18:34;;;;;;;1.00;1.00;;;20.30;68.70;;;;;;5075329;28;20028;-76
2023/10/09 00:21:12;;;;;;;1.10;1.08;;;20.30;68.70;;;;;;5092437;28;20032;-76
2023/10/09 00:23:39;;;;;;;1.08;1.08;;;20.30;68.80;;;;;;5096802;28;20087;-76
2023/10/09 00:26:08;;;;;;;1.15;1.15;;;20.30;68.70;;;;;;5091957;28;20425;-77
2023/10/09 00:28:38;;;;;;;1.02;1.02;;;20.30;68.70;;;;;;5096484;28;20512;-76
2023/10/09 00:31:07;;;;;;;1.30;1.20;;;20.40;68.80;;;;;;5077731;28;20031;-76
2023/10/09 00:33:33;;;;;;;1.27;1.20;;;20.30;68.70;;;;;;5088405;28;20032;-76
2023/10/09 00:36:14;;;;;;;1.30;1.20;;;20.30;68.80;;;;;;5095957;28;20065;-76
2023/10/09 00:38:39;;;;;;;1.35;1.25;;;20.30;68.70;;;;;;5100458;28;20036;-76
2023/10/09 00:43:35;;;;;;;1.10;1.00;;;20.30;68.80;;;;;;5098623;28;20032;-76
2023/10/09 00:48:49;;;;;;;1.15;1.15;;;20.30;68.70;;;;;;5089306;28;20391;-76
2023/10/09 00:51:16;;;;;;;1.33;1.25;;;20.30;68.70;;;;;;5095781;28;20072;-77
2023/10/09 00:53:51;;;;;;;1.20;1.20;;;20.30;68.70;;;;;;5097303;28;20102;-76
2023/10/09 00:59:08;;;;;;;1.02;1.02;;;20.30;68.70;;;;;;5096005;28;20083;-76
2023/10/09 01:01:36;;;;;;;1.10;1.10;;;20.30;68.70;;;;;;5087769;28;20040;-76
2023/10/09 01:04:40;;;;;;;1.10;1.00;;;20.30;68.80;;;;;;5094631;28;20032;-76
2023/10/09 01:07:08;;;;;;;2.13;1.20;;;20.30;68.90;;;;;;5082756;28;20021;-76
2023/10/09 01:09:43;;;;;;;1.02;1.02;;;20.30;68.90;;;;;;5095861;28;20142;-76
2023/10/09 01:12:16;;;;;;;1.00;1.00;;;20.30;69.00;;;;;;5091682;28;20036;-76
2023/10/09 01:14:43;;;;;;;0.80;0.80;;;20.30;69.10;;;;;;5101034;28;20054;-76
2023/10/09 01:17:09;;;;;;;0.90;0.90;;;20.30;69.20;;;;;;5094405;28;20036;-76
2023/10/09 01:19:35;;;;;;;0.80;0.80;;;20.30;69.00;;;;;;5102498;28;20055;-76
2023/10/09 01:22:04;;;;;;;1.00;1.00;;;20.30;69.00;;;;;;5095779;28;20137;-76
2023/10/09 01:24:35;;;;;;;0.90;0.90;;;20.30;69.30;;;;;;5088583;28;20037;-76
2023/10/09 01:27:00;;;;;;;0.82;0.82;;;20.30;69.20;;;;;;5099777;28;20044;-76
2023/10/09 01:29:27;;;;;;;0.90;0.90;;;20.30;69.30;;;;;;5094599;28;20038;-76
2023/10/09 01:31:56;;;;;;;1.05;1.00;;;20.30;69.40;;;;;;5097327;28;20065;-76
2023/10/09 01:34:34;;;;;;;0.93;0.93;;;20.30;69.20;;;;;;5091122;28;20506;-76
2023/10/09 01:37:00;;;;;;;0.82;0.82;;;20.30;69.20;;;;;;5084025;28;20508;-76
2023/10/09 01:39:39;;;;;;;1.00;1.00;;;20.30;69.10;;;;;;5095129;28;20620;-76
2023/10/09 01:42:06;;;;;;;2.58;1.25;;;20.30;69.00;;;;;;5093965;28;20044;-76
2023/10/09 01:44:34;;;;;;;0.98;0.98;;;20.30;68.90;;;;;;5096200;28;27658;-76
2023/10/09 01:47:07;;;;;;;0.90;0.90;;;20.30;69.00;;;;;;5099617;28;20408;-76
2023/10/09 01:49:41;;;;;;;1.02;1.02;;;20.30;69.00;;;;;;5092719;28;20819;-76
2023/10/09 01:52:09;;;;;;;;;;;20.30;69.10;;;;;;5093955;28;20047;-76
2023/10/09 01:54:39;;;;;;;0.70;0.70;;;20.30;69.20;;;;;;5082952;28;19935;-76
2023/10/09 01:57:08;;;;;;;0.90;0.90;;;20.30;69.10;;;;;;5089866;28;20043;-76
2023/10/09 01:59:38;;;;;;;0.90;0.90;;;20.30;69.00;;;;;;5095370;28;20056;-76
2023/10/09 02:05:23;;;;;;;0.90;0.90;;;20.30;68.90;;;;;;5093216;28;20527;-76
2023/10/09 02:07:51;;;;;;;1.10;1.00;;;20.30;68.90;;;;;;5077107;28;20119;-76
2023/10/09 02:12:58;;;;;;;1.00;1.00;;;20.30;68.90;;;;;;5085656;28;20345;-76
2023/10/09 02:18:25;;;;;;;1.00;1.00;;;20.30;68.80;;;;;;5093498;28;20048;-76
2023/10/09 02:26:08;;;;;;;1.10;1.10;;;20.20;68.80;;;;;;5067454;28;20045;-76
2023/10/09 02:28:34;;;;;;;1.10;1.10;;;20.30;68.70;;;;;;5066915;28;20075;-76
2023/10/09 02:31:01;;;;;;;1.20;1.10;;;20.30;68.70;;;;;;5063476;28;20059;-76
2023/10/09 02:33:27;;;;;;;0.90;0.90;;;20.20;68.80;;;;;;5059091;28;20060;-76
2023/10/09 02:35:59;;;;;;;1.20;1.10;;;20.20;68.70;;;;;;5069927;28;20045;-76
2023/10/09 02:38:26;;;;;;;1.10;1.10;;;20.20;68.70;;;;;;5054578;28;20474;-76
2023/10/09 02:41:18;;;;;;;1.35;1.27;;;20.20;68.80;;;;;;5058410;28;20049;-76
2023/10/09 02:43:47;;;;;;;1.13;1.13;;;20.20;68.90;;;;;;5061858;28;20515;-76
2023/10/09 02:49:09;;;;;;;1.05;1.05;;;20.20;68.80;;;;;;5053558;28;20127;-76
2023/10/09 02:51:41;;;;;;;0.90;0.90;;;20.20;68.70;;;;;;5075091;28;20063;-76
2023/10/09 02:56:47;;;;;;;1.17;1.17;;;20.20;68.80;;;;;;5058230;28;20525;-76
2023/10/09 02:59:13;;;;;;;0.90;0.90;;;20.20;68.80;;;;;;5071835;28;20101;-76
2023/10/09 03:01:40;;;;;;;1.10;1.10;;;20.20;68.80;;;;;;5070185;28;20124;-76
2023/10/09 03:04:06;;;;;;;1.20;1.10;;;20.20;68.80;;;;;;5073302;28;20028;-76
2023/10/09 03:06:34;;;;;;;1.08;1.08;;;20.20;68.80;;;;;;5069202;28;20103;-76
2023/10/09 03:09:00;;;;;;;1.23;1.20;;;20.20;68.70;;;;;;5073763;28;20032;-76
2023/10/09 03:11:26;;;;;;;0.85;0.85;;;20.20;68.70;;;;;;5077805;28;20435;-76
2023/10/09 03:13:52;;;;;;;1.40;1.30;;;20.20;68.80;;;;;;5079849;28;20036;-76
2023/10/09 03:16:21;;;;;;;1.15;1.10;;;20.20;68.80;;;;;;5071541;28;20516;-76
2023/10/09 03:18:52;;;;;;;0.80;0.80;;;20.20;68.80;;;;;;5054013;28;20040;-76
2023/10/09 03:21:18;;;;;;;0.98;0.95;;;20.20;68.80;;;;;;5072852;28;20055;-76
2023/10/09 03:23:49;;;;;;;1.20;1.10;;;20.20;68.80;;;;;;5086468;28;20032;-76
2023/10/09 03:26:19;;;;;;;1.10;1.10;;;20.20;68.70;;;;;;5100723;28;20059;-76
2023/10/09 03:28:47;;;;;;;1.15;1.13;;;20.20;68.70;;;;;;5093884;28;20514;-76
2023/10/09 03:31:13;;;;;;;1.08;0.95;;;20.20;68.60;;;;;;5088652;28;20032;-76
2023/10/09 03:33:39;;;;;;;1.27;1.17;;;20.20;68.60;;;;;;5083908;28;20532;-76
2023/10/09 03:36:11;;;;;;;1.00;1.00;;;20.20;68.70;;;;;;5090988;28;20036;-76
2023/10/09 03:38:38;;;;;;;0.98;0.98;;;20.20;68.60;;;;;;5090945;28;20043;-76
2023/10/09 03:41:05;;;;;;;0.82;0.82;;;20.20;68.50;;;;;;5095318;28;20502;-76
2023/10/09 03:43:39;;;;;;;0.90;0.90;;;20.20;68.40;;;;;;5088239;28;20040;-76
2023/10/09 03:46:32;;;;;;;0.80;0.80;;;20.20;68.50;;;;;;5089568;28;20507;-76
2023/10/09 03:49:00;;;;;;;1.05;0.95;;;20.20;68.40;;;;;;5085583;28;20044;-76
2023/10/09 03:51:27;;;;;;;0.95;0.95;;;20.20;68.40;;;;;;5083913;28;20044;-76
2023/10/09 03:53:55;;;;;;;1.05;1.00;;;20.20;68.40;;;;;;5080599;28;20051;-76
2023/10/09 03:56:21;;;;;;;1.00;1.00;;;20.20;68.40;;;;;;5076405;28;20033;-76
2023/10/09 03:58:49;;;;;;;1.08;1.08;;;20.20;68.50;;;;;;5094373;28;20043;-76
2023/10/09 04:01:27;;;;;;;0.90;0.90;;;20.20;68.60;;;;;;5078577;28;20024;-76
2023/10/09 04:03:59;;;;;;;1.30;1.20;;;20.20;68.50;;;;;;5095818;28;20051;-76
2023/10/09 04:06:32;;;;;;;1.08;1.00;;;20.20;68.40;;;;;;5087732;28;20124;-76
2023/10/09 04:09:13;;;;;;;0.95;0.95;;;20.20;68.40;;;;;;5092997;28;20406;-76
2023/10/09 04:11:42;;;;;;;0.93;0.93;;;20.20;68.40;;;;;;5093168;28;20032;-76
2023/10/09 04:14:12;;;;;;;1.00;1.00;;;20.20;68.30;;;;;;5087960;28;20044;-76
2023/10/09 04:16:51;;;;;;;0.95;0.90;;;20.20;68.30;;;;;;5087646;28;20572;-76
2023/10/09 04:19:21;;;;;;;1.00;1.00;;;20.20;68.30;;;;;;5090668;28;20417;-76
2023/10/09 04:21:55;;;;;;;0.80;0.80;;;20.20;68.30;;;;;;5088386;28;20045;-76
2023/10/09 04:26:46;;;;;;;0.70;0.70;;;20.20;68.30;;;;;;5091773;28;20024;-76
2023/10/09 04:29:26;;;;;;;0.70;0.70;;;20.20;69.00;;;;;;5094721;28;20108;-76
2023/10/09 04:31:56;;;;;;;0.85;0.85;;;20.20;68.20;;;;;;5085611;28;20040;-76
2023/10/09 04:34:37;;;;;;;0.70;0.70;;;20.20;68.30;;;;;;5087441;28;20035;-76
2023/10/09 04:38:05;;;;;;;0.77;0.77;;;20.20;68.30;;;;;;5089158;28;20023;-76
2023/10/09 04:40:11;;;;;;;1.25;1.15;;;20.20;68.30;;;;;;5077079;28;20135;-76
2023/10/09 04:42:36;;;;;;;1.73;0.80;;;20.20;68.30;;;;;;5087476;28;20505;-76
2023/10/09 04:47:35;;;;;;;1.25;1.15;;;20.20;68.20;;;;;;5088042;28;20036;-76
2023/10/09 04:52:52;;;;;;;0.80;0.80;;;20.20;68.20;;;;;;5088045;28;20097;-76
2023/10/09 04:55:19;;;;;;;1.13;1.10;;;20.10;68.20;;;;;;5089026;28;20032;-76
2023/10/09 04:57:46;;;;;;;0.65;0.65;;;20.10;68.20;;;;;;5083794;28;20119;-76
2023/10/09 05:02:57;;;;;;;0.90;0.90;;;20.20;68.20;;;;;;5087564;28;20159;-76
2023/10/09 05:08:21;;;;;;;2.30;1.00;;;20.10;68.30;;;;;;5098586;28;20294;-76
2023/10/09 05:13:42;;;;;;;1.17;1.08;;;20.10;68.20;;;;;;5086057;28;20482;-76
2023/10/09 05:16:15;;;;;;;0.80;0.80;;;20.10;68.30;;;;;;5078709;28;20115;-76
2023/10/09 05:18:41;;;;;;;0.70;0.70;;;20.10;68.30;;;;;;5075588;28;20051;-76
2023/10/09 05:23:48;;;;;;;0.90;0.90;;;20.10;68.20;;;;;;5076288;28;20036;-76
2023/10/09 05:26:37;;;;;;;0.93;0.93;;;20.10;68.20;;;;;;5092031;28;20039;-76
2023/10/09 05:29:19;;;;;;;1.08;1.05;;;20.10;69.00;;;;;;5093950;28;20066;-76
2023/10/09 05:31:57;;;;;;;0.95;0.95;;;20.10;68.30;;;;;;5094597;28;20044;-76
2023/10/09 05:34:23;;;;;;;0.90;0.90;;;20.10;68.40;;;;;;5075613;28;20055;-76
2023/10/09 05:36:49;;;;;;;0.85;0.85;;;20.10;69.00;;;;;;5082254;28;20531;-76
2023/10/09 05:39:22;;;;;;;1.00;1.00;;;20.10;68.30;;;;;;5083059;28;20047;-76
2023/10/09 05:41:52;;;;;;;1.02;1.02;;;20.10;68.20;;;;;;5088114;28;20039;-76
2023/10/09 05:49:47;;;;;;;0.70;0.70;;;20.10;68.70;;;;;;5093687;28;20688;-78
2023/10/09 06:08:27;;;;;;;2.63;2.42;;;19.40;61.90;;;;;;5014052;28;20676;-78
2023/10/09 06:11:05;;;;;;;2.65;2.45;;;19.40;62.20;;;;;;5014571;28;20042;-78
2023/10/09 06:13:38;;;;;;;2.33;2.22;;;19.30;62.40;;;;;;5028773;28;20061;-78
2023/10/09 06:16:41;;;;;;;2.72;2.53;;;19.30;62.40;;;;;;5016401;28;20503;-78
2023/10/09 06:19:11;;;;;;;2.53;2.25;;;19.20;62.20;;;;;;5018169;28;20107;-76
2023/10/09 06:22:19;;;;;;;4.85;2.50;;;19.20;62.20;;;;;;5002814;28;20623;-78
2023/10/09 06:25:08;;;;;;;2.50;2.30;;;19.20;62.30;;;;;;5002129;28;20050;-77
2023/10/09 06:32:50;;;;;;;2.40;2.30;;;19.10;61.90;;;;;;5012114;28;20519;-77
2023/10/09 06:35:21;;;;;;;3.28;3.08;;;19.00;62.50;;;;;;5011695;28;20049;-77
2023/10/09 06:43:36;;;;;;;3.00;2.72;;;18.90;63.30;;;;;;5088301;28;20418;-77
2023/10/09 06:48:55;;;;;;;2.47;2.38;;;18.80;63.80;;;;;;5076612;28;20635;-77
2023/10/09 06:59:03;;;;;;;2.97;1.85;;;19.20;64.90;;;;;;5087635;28;20046;-77
2023/10/09 07:04:18;;;;;;;3.20;2.20;;;19.20;65.10;;;;;;5086428;28;20040;-76
2023/10/09 07:06:51;;;;;;;1.70;1.60;;;19.30;65.60;;;;;;5082812;28;20036;-77
2023/10/09 07:09:18;;;;;;;1.70;1.60;;;19.30;65.90;;;;;;5088155;28;20096;-77
2023/10/09 07:17:44;;;;;;;2.08;1.80;;;19.40;66.90;;;;;;5094017;28;20036;-77
2023/10/09 07:24:49;;;;;;;1.70;1.60;;;19.40;67.40;;;;;;5089371;28;20040;-77
2023/10/09 07:30:35;;;;;;;1.55;1.45;;;19.40;67.30;;;;;;5088419;28;20063;-77
2023/10/09 07:33:16;;;;;;;2.63;1.85;;;19.50;67.50;;;;;;5092152;28;20545;-77
2023/10/09 07:35:57;;;;;;;1.60;1.50;;;19.50;67.30;;;;;;5086993;28;20402;-77
2023/10/09 07:38:28;;;;;;;1.70;1.60;;;19.50;67.30;;;;;;5102131;27;20169;-76
2023/10/09 07:43:45;;;;;;;1.60;1.23;;;19.50;67.30;;;;;;5086017;28;20051;-76
2023/10/09 07:46:51;;;;;;;2.10;1.40;;;19.50;67.30;;;;;;5088770;28;20056;-76
2023/10/09 07:49:24;;;;;;;1.52;1.45;;;19.50;67.40;;;;;;5087355;28;20050;-77
2023/10/09 07:51:52;;;;;;;1.60;1.45;;;19.50;67.40;;;;;;5081933;28;20081;-77
2023/10/09 07:54:31;;;;;;;2.58;1.80;;;19.50;67.30;;;;;;5079564;28;20036;-76
2023/10/09 07:57:08;;;;;;;1.27;1.17;;;19.50;67.40;;;;;;5087966;28;20478;-76
2023/10/09 07:59:36;;;;;;;1.63;1.52;;;19.50;67.20;;;;;;5086129;28;20052;-76
2023/10/09 08:02:02;;;;;;;1.52;1.42;;;19.50;68.20;;;;;;5087229;28;20078;-77
2023/10/09 08:04:37;;;;;;;1.77;1.67;;;19.50;67.50;;;;;;5089701;28;20063;-76
2023/10/09 08:07:09;;;;;;;1.45;1.35;;;19.50;67.50;;;;;;5071210;28;20123;-77
2023/10/09 08:09:48;;;;;;;1.30;1.20;;;19.50;67.50;;;;;;5079216;28;20051;-77
2023/10/09 08:15:21;;;;;;;1.60;1.50;;;19.60;67.60;;;;;;5086037;28;20047;-77
2023/10/09 08:17:53;;;;;;;1.55;1.20;;;19.60;67.60;;;;;;5082873;28;20238;-77
2023/10/09 08:20:25;;;;;;;1.33;1.23;;;19.60;67.70;;;;;;5093860;28;20058;-77
2023/10/09 08:22:52;;;;;;;1.50;1.40;;;19.60;67.60;;;;;;5095482;28;20512;-76
2023/10/09 08:25:35;;;;;;;1.50;1.40;;;19.60;67.60;;;;;;5086870;28;20510;-77
2023/10/09 08:36:01;;;;;;;1.55;1.20;;;19.70;67.50;;;;;;5089151;28;20571;-77
2023/10/09 08:38:33;;;;;;;1.48;1.20;;;19.70;67.50;;;;;;5090043;28;20691;-77
2023/10/09 08:41:14;;;;;;;1.25;1.15;;;19.70;67.50;;;;;;5093100;28;20054;-76
2023/10/09 08:43:39;;;;;;;1.20;1.10;;;19.70;67.50;;;;;;5071968;28;20120;-76
2023/10/09 08:46:05;;;;;;;1.17;1.17;;;19.70;68.40;;;;;;5051254;28;20074;-76
2023/10/09 08:48:30;;;;;;;1.17;1.17;;;19.70;67.60;;;;;;5075346;28;20059;-77
2023/10/09 08:50:56;;;;;;;1.42;1.42;;;19.70;67.60;;;;;;5083985;28;20040;-77
2023/10/09 08:53:23;;;;;;;1.40;1.30;;;19.70;67.60;;;;;;5095020;28;20036;-77
2023/10/09 08:55:49;;;;;;;1.08;1.08;;;19.80;67.80;;;;;;5097825;28;20497;-77
2023/10/09 08:58:24;;;;;;;1.30;1.20;;;19.80;68.20;;;;;;5088362;28;20036;-76
2023/10/09 09:00:50;;;;;;;1.30;1.20;;;19.80;67.80;;;;;;5089560;28;22361;-77
2023/10/09 09:03:17;;;;;;;1.30;1.20;;;19.80;68.00;;;;;;5093583;28;20052;-76
2023/10/09 09:05:49;;;;;;;1.27;1.20;;;19.80;68.10;;;;;;5091091;28;20037;-76
2023/10/09 09:08:25;;;;;;;1.52;1.42;;;19.80;67.90;;;;;;5089169;28;20047;-76
2023/10/09 09:11:23;;;;;;;1.40;1.30;;;19.80;68.00;;;;;;5091904;28;20048;-77
2023/10/09 09:14:05;;;;;;;1.30;1.20;;;19.90;68.30;;;;;;5055029;28;20079;-77
2023/10/09 09:16:32;;;;;;;1.00;1.00;;;19.90;68.30;;;;;;5089389;28;20411;-76
2023/10/09 09:21:38;;;;;;;1.00;1.00;;;19.90;69.10;;;;;;5091777;28;20056;-76
2023/10/09 09:24:15;;;;;;;1.33;1.25;;;19.90;68.30;;;;;;5087840;28;20036;-76
2023/10/09 09:26:47;;;;;;;1.58;1.48;;;19.90;68.10;;;;;;5086847;28;20054;-77
2023/10/09 09:29:17;;;;;;;1.00;1.00;;;19.90;68.30;;;;;;5098162;28;20844;-77
2023/10/09 09:31:53;;;;;;;1.10;1.10;;;19.90;68.30;;;;;;5078080;28;20401;-77
2023/10/09 09:34:25;;;;;;;1.20;1.20;;;19.90;68.70;;;;;;5092346;28;20058;-77
2023/10/09 09:36:54;;;;;;;1.02;1.02;;;19.90;68.70;;;;;;5082464;28;20032;-76
2023/10/09 09:39:28;;;;;;;1.00;1.00;;;19.90;69.00;;;;;;5091475;28;20051;-77
2023/10/09 09:42:03;;;;;;;1.38;1.30;;;20.00;68.80;;;;;;5089942;28;20048;-77
2023/10/09 09:44:32;;;;;;;0.95;0.95;;;20.00;68.70;;;;;;5081897;28;20049;-76
2023/10/09 09:47:01;;;;;;;1.00;1.00;;;20.00;68.60;;;;;;5097516;28;20036;-76
2023/10/09 09:49:31;;;;;;;1.48;1.17;;;20.00;68.70;;;;;;5089936;28;20580;-76
2023/10/09 09:52:09;;;;;;;1.25;0.80;;;20.00;68.60;;;;;;5061416;28;20031;-76
2023/10/09 09:54:38;;;;;;;1.10;1.10;;;20.00;68.60;;;;;;5092087;28;20083;-77
2023/10/09 09:57:10;;;;;;;1.38;1.23;;;20.00;68.70;;;;;;5081175;28;20164;-77
2023/10/09 09:59:40;;;;;;;1.20;1.20;;;20.10;68.80;;;;;;5090131;28;20518;-77
2023/10/09 10:02:07;;;;;;;1.10;1.10;;;20.00;68.80;;;;;;5094123;28;20036;-77
2023/10/09 10:04:35;;;;;;;1.40;1.30;;;20.00;68.80;;;;;;5066198;28;20044;-77
2023/10/09 10:07:03;;;;;;;1.13;1.10;;;20.00;68.60;;;;;;5081267;28;20044;-77
2023/10/09 10:09:39;;;;;;;1.00;1.00;;;20.10;68.60;;;;;;5079619;28;20066;-77
2023/10/09 10:12:11;;;;;;;1.38;1.30;;;20.10;68.50;;;;;;5090168;28;20131;-77
2023/10/09 10:14:57;;;;;;;1.33;1.23;;;20.00;68.40;;;;;;5087480;28;20052;-77
2023/10/09 10:17:22;;;;;;;1.42;1.33;;;20.10;68.20;;;;;;5092447;28;20047;-77
2023/10/09 10:22:47;;;;;;;1.23;1.23;;;20.10;68.30;;;;;;5095031;28;20043;-77
2023/10/09 10:25:35;;;;;;;0.90;0.90;;;20.10;68.20;;;;;;5084752;28;20510;-77
2023/10/09 10:28:28;;;;;;;0.98;0.98;;;20.20;68.30;;;;;;5097278;28;20042;-77
2023/10/09 10:30:54;;;;;;;1.17;1.10;;;20.10;68.40;;;;;;5088109;28;20101;-77
2023/10/09 10:33:22;;;;;;;1.05;1.05;;;20.20;68.40;;;;;;5091898;28;20036;-77
2023/10/09 10:35:52;;;;;;;1.00;0.90;;;20.20;68.10;;;;;;5079867;28;20035;-77
2023/10/09 10:38:36;;;;;;;1.20;1.17;;;20.20;68.20;;;;;;5090870;28;20036;-77
2023/10/09 10:41:22;;;;;;;1.30;1.30;;;20.20;69.00;;;;;;5086550;28;20564;-77
2023/10/09 10:43:48;;;;;;;0.98;0.98;;;20.20;68.10;;;;;;5088745;28;20048;-77
2023/10/09 10:48:59;;;;;;;0.90;0.90;;;20.20;68.10;;;;;;5092544;28;20097;-77
2023/10/09 10:51:37;;;;;;;1.05;1.05;;;20.30;68.50;;;;;;5068638;28;20032;-77
2023/10/09 10:54:28;;;;;;;0.73;0.68;;;20.30;68.20;;;;;;5077875;28;20036;-77
2023/10/09 10:56:49;;;;;;;1.20;1.10;;;20.40;68.50;;;;;;5077533;28;20081;-77
2023/10/09 10:59:22;;;;;;;0.80;0.80;;;20.40;68.40;;;;;;5093444;28;20063;-79
2023/10/09 11:07:12;;;;;;;0.90;0.90;;;20.40;68.20;;;;;;5073800;28;20043;-80
2023/10/09 11:12:39;;;;;;;2.78;0.90;;;20.40;68.30;;;;;;5083797;28;20163;-78
2023/10/09 11:15:44;;;;;;;1.27;1.10;;;20.40;67.80;;;;;;5079511;28;20048;-79
2023/10/09 11:18:28;;;;;;;0.90;0.90;;;20.40;68.70;;;;;;5078454;28;20079;-78
2023/10/09 11:23:38;;;;;;;1.73;1.63;;;20.50;68.20;;;;;;5088754;28;20059;-77
2023/10/09 11:29:23;;;;;;;1.25;1.25;;;20.50;68.50;;;;;;5079665;28;20092;-77
2023/10/09 11:32:01;;;;;;;1.40;1.30;;;20.50;68.20;;;;;;5081951;28;20103;-77
2023/10/09 11:34:37;;;;;;;1.10;1.10;;;20.40;68.20;;;;;;5060229;28;20542;-77
2023/10/09 11:37:12;;;;;;;0.90;0.90;;;20.50;68.40;;;;;;5082501;28;20043;-77
2023/10/09 11:39:50;;;;;;;1.15;1.15;;;20.50;68.40;;;;;;5085199;28;20052;-77
2023/10/09 11:43:12;;;;;;;1.17;1.17;;;20.50;68.40;;;;;;5085826;28;20036;-76
2023/10/09 11:45:28;;;;;;;1.05;1.05;;;20.50;68.40;;;;;;5055932;28;20054;-77
2023/10/09 11:47:58;;;;;;;4.32;1.17;;;20.50;68.30;;;;;;5076717;28;20093;-77
2023/10/09 11:50:51;;;;;;;1.05;1.05;;;20.50;68.20;;;;;;5091739;28;20036;-77
2023/10/09 11:53:32;;;;;;;1.08;1.08;;;20.50;68.10;;;;;;5084916;28;20036;-77
2023/10/09 11:55:58;;;;;;;1.10;1.08;;;20.60;68.00;;;;;;5089807;28;20231;-77
2023/10/09 11:58:24;;;;;;;1.10;1.00;;;20.60;67.90;;;;;;5087187;28;20033;-77
2023/10/09 12:00:58;;;;;;;0.98;0.98;;;20.60;68.00;;;;;;5090155;28;20058;-77
2023/10/09 12:03:30;;;;;;;1.35;1.25;;;20.60;67.80;;;;;;5083127;28;20455;-77
2023/10/09 12:06:43;;;;;;;1.00;1.00;;;20.60;67.80;;;;;;5079950;28;20058;-77
2023/10/09 12:08:49;;;;;;;1.73;1.08;;;20.60;67.80;;;;;;5085908;28;20048;-77
2023/10/09 12:11:28;;;;;;;1.10;1.10;;;20.60;67.70;;;;;;5095774;28;20112;-77
2023/10/09 12:13:56;;;;;;;0.98;0.98;;;20.60;67.70;;;;;;5098124;28;20074;-77
2023/10/09 12:16:27;;;;;;;1.42;1.33;;;20.60;67.60;;;;;;5092709;28;20404;-76
2023/10/09 12:18:56;;;;;;;0.82;0.82;;;20.60;67.60;;;;;;5086380;28;20472;-77
2023/10/09 12:21:23;;;;;;;0.85;0.85;;;20.60;67.60;;;;;;5087734;28;20063;-76
2023/10/09 12:23:48;;;;;;;0.93;0.93;;;20.60;67.50;;;;;;5094257;28;20040;-76
2023/10/09 12:26:14;;;;;;;1.30;1.20;;;20.60;67.40;;;;;;5101495;28;20086;-77
2023/10/09 12:28:46;;;;;;;1.00;1.00;;;20.60;67.40;;;;;;5099099;28;20043;-77
2023/10/09 12:31:20;;;;;;;1.23;1.20;;;20.60;67.40;;;;;;5098618;28;20047;-77
2023/10/09 12:33:47;;;;;;;1.50;1.40;;;20.60;67.20;;;;;;5092282;28;20036;-77
2023/10/09 12:36:19;;;;;;;1.02;1.02;;;20.60;67.10;;;;;;5096249;28;20032;-77
2023/10/09 12:38:50;;;;;;;1.10;1.10;;;20.60;67.10;;;;;;5098909;28;20086;-77
2023/10/09 12:41:28;;;;;;;1.08;1.08;;;20.60;67.80;;;;;;5079493;28;20110;-77
2023/10/09 12:43:59;;;;;;;1.10;1.10;;;20.60;66.90;;;;;;5097040;28;20528;-77
2023/10/09 12:46:25;;;;;;;1.40;1.30;;;20.60;66.80;;;;;;5096190;28;20047;-77
2023/10/09 12:48:54;;;;;;;1.42;1.30;;;20.60;66.90;;;;;;5096448;28;20035;-77
2023/10/09 12:51:20;;;;;;;0.93;0.93;;;20.60;66.90;;;;;;5097532;28;20032;-77
2023/10/09 12:53:48;;;;;;;1.10;1.10;;;20.60;66.70;;;;;;5096767;28;20042;-77
2023/10/09 12:56:15;;;;;;;0.93;0.93;;;20.70;66.90;;;;;;5101264;28;20043;-77
2023/10/09 12:58:52;;;;;;;1.25;1.17;;;20.70;66.90;;;;;;5092323;28;20035;-77
2023/10/09 13:01:19;;;;;;;1.13;1.13;;;20.70;66.90;;;;;;5095105;28;20056;-77
2023/10/09 13:03:49;;;;;;;1.35;1.15;;;20.60;66.80;;;;;;5098575;28;20128;-77
2023/10/09 13:06:15;;;;;;;1.10;1.10;;;20.70;66.80;;;;;;5099144;28;20063;-77
2023/10/09 13:08:41;;;;;;;0.90;0.90;;;20.70;66.90;;;;;;5098519;28;25505;-76
2023/10/09 13:11:10;;;;;;;0.70;0.70;;;20.70;66.70;;;;;;5093859;28;20102;-77
2023/10/09 13:13:40;;;;;;;0.82;0.82;;;20.70;66.70;;;;;;5094663;28;20040;-77
2023/10/09 13:16:13;;;;;;;1.20;1.20;;;20.70;66.60;;;;;;5089588;28;20136;-77
2023/10/09 13:18:40;;;;;;;1.33;1.23;;;20.70;66.60;;;;;;5092512;28;20036;-77
2023/10/09 13:21:06;;;;;;;1.05;1.05;;;20.70;66.70;;;;;;5095299;28;20048;-77
2023/10/09 13:23:46;;;;;;;1.15;1.13;;;20.70;66.50;;;;;;5097812;28;20088;-77
2023/10/09 13:26:18;;;;;;;0.90;0.90;;;20.70;66.50;;;;;;5081171;28;20610;-77
2023/10/09 13:28:56;;;;;;;1.10;1.05;;;20.70;66.40;;;;;;5096126;28;20123;-77
2023/10/09 13:31:25;;;;;;;0.80;0.80;;;20.70;66.40;;;;;;5091937;28;20069;-77
2023/10/09 13:33:54;;;;;;;0.70;0.70;;;20.70;66.30;;;;;;5091977;28;20047;-77
2023/10/09 13:36:26;;;;;;;1.00;1.00;;;20.70;66.50;;;;;;5093988;28;20043;-77
2023/10/09 13:38:53;;;;;;;0.90;0.90;;;20.70;67.20;;;;;;5085991;28;20040;-77
2023/10/09 13:41:19;;;;;;;1.13;1.02;;;20.70;67.00;;;;;;5114852;27;20040;-77
2023/10/09 13:43:44;;;;;;;1.20;1.20;;;20.70;66.40;;;;;;5093514;28;20058;-77
2023/10/09 13:46:11;;;;;;;1.30;1.30;;;20.70;66.40;;;;;;5095823;28;20067;-77
2023/10/09 13:48:41;;;;;;;1.13;1.13;;;20.70;66.50;;;;;;5096920;28;20053;-77
2023/10/09 13:51:13;;;;;;;0.90;0.90;;;20.70;66.30;;;;;;5095827;28;20033;-77
2023/10/09 13:53:44;;;;;;;1.02;1.02;;;20.70;66.20;;;;;;5110667;27;20029;-77
2023/10/09 13:56:20;;;;;;;1.00;1.00;;;20.70;66.30;;;;;;5095344;28;20043;-77
2023/10/09 13:58:50;;;;;;;1.17;1.17;;;20.70;66.40;;;;;;5089639;28;20043;-77
2023/10/09 14:01:28;;;;;;;1.17;1.17;;;20.70;66.30;;;;;;5094245;28;20067;-76
2023/10/09 14:03:55;;;;;;;1.40;0.90;;;20.70;66.30;;;;;;5079435;28;20088;-77
2023/10/09 14:06:30;;;;;;;1.40;1.30;;;20.70;66.40;;;;;;5094044;28;20040;-77
2023/10/09 14:08:59;;;;;;;0.98;0.98;;;20.70;66.20;;;;;;5092715;28;20145;-77
2023/10/09 14:11:25;;;;;;;1.20;1.10;;;20.70;66.30;;;;;;5100101;28;20043;-77
2023/10/09 14:13:52;;;;;;;1.10;1.10;;;20.70;66.10;;;;;;5087730;27;20429;-78
2023/10/09 14:16:23;;;;;;;0.95;0.95;;;20.70;66.20;;;;;;5101022;27;20046;-78
2023/10/09 14:18:57;;;;;;;1.20;1.10;;;20.70;66.40;;;;;;5086928;28;20100;-78
2023/10/09 14:21:29;;;;;;;1.08;0.98;;;20.80;66.20;;;;;;5084997;28;20051;-78
2023/10/09 14:23:58;;;;;;;1.10;1.00;;;20.70;66.50;;;;;;5085310;28;20048;-78
2023/10/09 14:26:27;;;;;;;0.77;0.77;;;20.80;66.60;;;;;;5070701;28;20406;-78
2023/10/09 14:28:56;;;;;;;0.85;0.85;;;20.80;66.90;;;;;;5089235;28;20051;-79
2023/10/09 14:31:26;;;;;;;1.70;1.05;;;20.80;67.60;;;;;;5085536;28;20088;-78
2023/10/09 14:33:55;;;;;;;1.20;1.10;;;20.80;66.90;;;;;;5093399;28;20084;-78
2023/10/09 14:36:25;;;;;;;1.30;1.20;;;20.80;66.90;;;;;;5091901;28;20118;-78
2023/10/09 14:38:55;;;;;;;0.93;0.93;;;20.80;66.70;;;;;;5097008;27;20032;-78
2023/10/09 14:41:23;;;;;;;1.48;1.38;;;20.80;66.70;;;;;;5093644;28;20094;-79
2023/10/09 14:43:50;;;;;;;0.88;0.88;;;20.80;67.10;;;;;;5087079;28;20073;-78
2023/10/09 14:46:20;;;;;;;1.23;1.13;;;20.80;67.10;;;;;;5079377;28;20044;-79
2023/10/09 14:48:45;;;;;;;1.40;1.30;;;20.80;66.10;;;;;;5075112;28;20049;-78
2023/10/09 14:51:13;;;;;;;0.90;0.90;;;20.80;66.30;;;;;;5089036;28;20052;-78
2023/10/09 14:53:40;;;;;;;3.70;1.50;;;20.80;66.60;;;;;;4735524;28;10000462;-80
2023/10/09 14:56:08;;;;;;;3.08;2.42;;;20.80;68.00;;;;;;5088466;28;20056;-79
2023/10/09 14:58:35;;;;;;;2.72;2.50;;;20.80;70.80;;;;;;5062258;28;20051;-81
2023/10/09 15:01:10;;;;;;;2.65;2.45;;;20.80;71.70;;;;;;5065973;28;20060;-80
2023/10/09 15:03:39;;;;;;;3.03;2.45;;;20.80;71.90;;;;;;5085928;28;20551;-79
2023/10/09 15:06:11;;;;;;;2.40;2.20;;;20.80;74.50;;;;;;5068196;28;20432;-79
2023/10/09 15:08:36;;;;;;;1.98;1.88;;;20.80;72.40;;;;;;5081197;28;20127;-79
2023/10/09 15:11:02;;;;;;;2.35;1.80;;;20.80;71.20;;;;;;5089170;28;20647;-79
2023/10/09 15:13:28;;;;;;;2.30;1.88;;;20.80;70.60;;;;;;5083122;28;20040;-79
2023/10/09 15:15:54;;;;;;;1.70;1.30;;;20.80;69.80;;;;;;5087347;28;20084;-79
2023/10/09 15:18:21;;;;;;;3.13;1.48;;;20.80;69.40;;;;;;5070997;28;20173;-79
2023/10/09 15:20:47;;;;;;;1.58;1.48;;;20.80;69.20;;;;;;5078753;28;20049;-79
2023/10/09 15:23:12;;;;;;;1.48;1.38;;;20.80;68.90;;;;;;5092028;28;20047;-79
2023/10/09 15:25:45;;;;;;;1.67;1.27;;;20.80;68.60;;;;;;5084864;28;20146;-79
2023/10/09 15:28:10;;;;;;;1.98;1.30;;;20.80;68.60;;;;;;5068521;28;20059;-79
2023/10/09 15:30:37;;;;;;;3.00;1.33;;;20.80;68.50;;;;;;5059512;28;20045;-79
2023/10/09 15:33:05;;;;;;;1.40;1.30;;;20.80;68.30;;;;;;5080931;27;20052;-78
2023/10/09 15:35:33;;;;;;;1.77;1.67;;;20.80;68.10;;;;;;5068609;28;20105;-79
2023/10/09 15:38:05;;;;;;;1.48;1.38;;;20.80;68.10;;;;;;5088263;28;20044;-79